Airfield :
LOGIN :

Register | Disclaimer

   EN    FR    IT 

 










Legend :    VFR   Marginal VFR   IFR   Intensive IFR   Very Intensive IFR
Visi :
Ceiling :
>= 8 km
>= 3000ft
5 to 8 km
1000 to 3000 ft
1500m to 5 km
500 to 1000 ft
800 to 1500m
200 to 500 ft
< 800m
< 200 ft
Symbols :   Thunderstorms  Fog  Heavy snow  Heavy precipitations  Wind > 20 kt
SIGMETs :     Misc.  Thunderstorms  Icing  Turbulence  Mountain Waves  Volcanic Ashes







- Airport Elevation : 53 ft
- IATA code : AGP


LEMG - Malaga

CURRENT METAR :
  • 301630Z 31008KT 9999 FEW050 22/12 Q1014 NOSIG

EXPIRED METARs :
  • 301600Z 32009KT 290V350 9999 FEW050 22/11 Q1014 NOSIG
  • 301530Z 31005G16KT 270V020 9999 FEW050 23/10 Q1014 NOSIG
  • 301500Z 16006KT 110V230 9999 FEW040 22/10 Q1015 NOSIG
  • 301430Z 17007KT 120V230 9999 FEW040 22/11 Q1015 NOSIG
  • 301400Z 16008KT 100V240 9999 FEW040 22/11 Q1015 NOSIG

TAF TAF LEMG
Valid from the 30 at 12:00 until the 01 at 12:00 UTC


301100Z 3012/0112 29007KT 9999 FEW020 SCT040 TX23/3015Z TN12/0105Z
PROB30
TEMPO 3012/3017 VRB03KT
PROB40
TEMPO 0105/0111 29015G25KT
No reported NOTAMs for that airfield.
1 SIGMET reported for the Madrid FIR (LECM) :
 
Severe mountain waves
LECM SIGMET 6 VALID 301337/301700 LEVA
LECM MADRID FIR/UIR SEV MTW OBS AT 1337Z N OF LINE N4250 W00120 - N4230 W00020 FL060/350 STNR NC=



MET'MAP, your aeronautical weather chart ! - Copyright ORBIFLY December 2007 - Disclaimer

ORBIFLY MET'MAP TEAM :

Programming & Development : Alexandra Zaïnal
Concept & Development : Baudouin d'Aumeries
Co-Development & Prog : Marc-Olivier Méhu
Technical & hardware support : Manuel Goepfert

Contact : metmap@orbifly.com




SOURCES & CREDITS :

   NOAA